KAND/AND METAR and TAF weather

Enter ICAO airport designator
Station Type Date Time Source
KAND METAR 2024/04/18 06:56 UTC NOAA

KAND 180656Z AUTO 00000KT 10SM CLR 15/12 A3006 RMK AO2 SLP173 T01500117


Station Type Date Time Source
KAND Decoded METAR 2024/04/18 06:56 UTC NOAA

ANDERSON COUNTY AIRPORT, SC, United States (KAND) 34-30N 82-43W 239M
Apr 18, 2024 - 02:56 AM EDT / 2024.04.18 0656 UTC
Wind: Calm:0
Visibility: 10 mile(s):0
Sky conditions: clear
Temperature: 59.0 F (15.0 C)
Dew Point: 53.1 F (11.7 C)
Relative Humidity: 80%
Pressure (altimeter): 30.06 in. Hg (1017 hPa)
ob: KAND 180656Z AUTO 00000KT 10SM CLR 15/12 A3006 RMK AO2 SLP173 T01500117
cycle: 7

Station Type Date Time Source
KAND TAF 2024/04/18 06:36 UTC NOAA